Terminal Aerodrome Forecast
Issued by NWS Nashville, TN

Home | Current Version | Previous Version | Text Only | Print | Product List | Glossary On
Versions: 1 2 3 4 5 6 7 8 9 10 11 12 13 14 15
000
FTUS44 KOHX 301120
TAFBNA
TAF
KBNA 301120Z 3012/3112 00000KT P6SM OVC100
     FM301900 18005KT P6SM VCSH BKN050 OVC100
     FM310100 12004KT P6SM OVC100=

USA.gov is the U.S. government's official web portal to all federal, state and local government web resources and services.